Time;durP1;ratioP1;P1;durP2;ratioP2;P2;SDS_P1;SDS_P2;PMS_P1;PMS_P2;Temp;Humidity;BMP_temperature;BMP_pressure;BME280_temperature;BME280_humidity;BME280_pressure;Samples;Min_cycle;Max_cycle;Signal;HPM_P1;HPM_P2
2023/05/23 00:00:41;;;;;;;14.02;8.48;;;;;;;15.72;94.86;101430.00;5008119;28;20477;-68
2023/05/23 00:03:07;;;;;;;13.90;8.98;;;;;;;15.66;95.08;101430.69;5008043;28;20061;-69
2023/05/23 00:05:33;;;;;;;18.33;8.80;;;;;;;15.59;95.78;101429.75;5006471;28;20037;-68
2023/05/23 00:08:00;;;;;;;15.68;9.00;;;;;;;15.55;96.29;101433.72;5003641;28;20060;-69
2023/05/23 00:10:26;;;;;;;12.02;8.23;;;;;;;15.53;96.59;101438.31;5008850;28;20041;-69
2023/05/23 00:12:52;;;;;;;15.93;9.32;;;;;;;15.54;96.63;101440.75;5021715;28;20054;-69
2023/05/23 00:15:17;;;;;;;17.40;10.90;;;;;;;15.55;96.86;101444.16;4991078;28;20456;-68
2023/05/23 00:17:43;;;;;;;15.77;10.07;;;;;;;15.54;96.77;101439.94;5006897;28;20037;-68
2023/05/23 00:20:10;;;;;;;20.25;12.35;;;;;;;15.54;97.30;101447.78;5005753;28;20049;-68
2023/05/23 00:22:38;;;;;;;23.42;11.60;;;;;;;15.53;97.16;101438.31;5009058;28;20038;-68
2023/05/23 00:25:05;;;;;;;19.08;10.93;;;;;;;15.55;96.99;101444.97;5005205;28;20049;-68
2023/05/23 00:27:31;;;;;;;16.90;9.88;;;;;;;15.44;98.03;101450.59;5011108;28;20030;-68
2023/05/23 00:29:56;;;;;;;14.70;10.25;;;;;;;15.55;97.56;101459.84;4985649;28;20081;-68
2023/05/23 00:32:22;;;;;;;17.45;10.32;;;;;;;15.50;97.35;101449.94;4981874;28;20018;-68
2023/05/23 00:34:48;;;;;;;17.33;10.00;;;;;;;15.44;98.02;101461.03;4989111;28;20046;-68
2023/05/23 00:37:14;;;;;;;16.90;10.07;;;;;;;15.44;98.01;101458.44;4994409;28;20081;-68
2023/05/23 00:39:39;;;;;;;14.75;9.90;;;;;;;15.37;98.66;101468.78;4998419;28;20516;-68
2023/05/23 00:42:06;;;;;;;15.55;9.60;;;;;;;15.40;98.59;101467.59;4999601;28;20044;-68
2023/05/23 00:44:32;;;;;;;16.92;10.05;;;;;;;15.40;98.21;101472.84;5005440;28;20033;-68
2023/05/23 00:46:58;;;;;;;13.23;8.80;;;;;;;15.32;97.83;101475.50;5002513;28;20053;-68
2023/05/23 00:49:26;;;;;;;12.38;7.22;;;;;;;15.37;95.35;101467.97;5004108;28;20330;-68
2023/05/23 00:51:52;;;;;;;13.80;6.75;;;;;;;15.33;94.16;101470.09;5022543;28;20030;-68
2023/05/23 00:54:22;;;;;;;9.75;6.15;;;;;;;15.37;94.36;101475.81;5011413;28;20049;-68
2023/05/23 00:56:48;;;;;;;9.27;6.35;;;;;;;15.22;94.81;101475.72;5007479;28;20037;-68
2023/05/23 00:59:15;;;;;;;9.80;5.45;;;;;;;15.23;94.23;101473.91;5004427;28;20042;-68
2023/05/23 01:01:41;;;;;;;11.15;5.28;;;;;;;15.26;93.37;101478.78;5011992;28;20026;-69
2023/05/23 01:04:06;;;;;;;6.93;4.80;;;;;;;15.27;92.62;101473.38;4994836;28;20137;-68
2023/05/23 01:06:32;;;;;;;6.55;4.60;;;;;;;15.22;92.37;101469.66;5005530;28;20041;-69
2023/05/23 01:09:01;;;;;;;7.10;4.60;;;;;;;15.25;92.56;101477.97;5005742;28;20045;-69
2023/05/23 01:11:48;;;;;;;7.97;4.13;;;;;;;15.25;93.05;101472.75;5011900;28;20057;-69
2023/05/23 01:14:21;;;;;;;7.70;4.60;;;;;;;15.18;93.01;101472.63;4987131;28;20046;-69
2023/05/23 01:16:54;;;;;;;8.07;4.50;;;;;;;15.21;92.89;101474.06;5007612;28;20496;-69
2023/05/23 01:19:43;;;;;;;7.00;4.32;;;;;;;15.22;92.89;101478.31;4998363;28;20121;-68
2023/05/23 01:22:25;;;;;;;8.82;5.00;;;;;;;15.29;92.44;101473.22;4969781;28;20050;-69
2023/05/23 01:25:05;;;;;;;9.33;5.00;;;;;;;15.18;92.39;101479.63;5001158;28;20061;-69
2023/05/23 01:27:51;;;;;;;9.57;5.97;;;;;;;15.19;92.80;101487.28;4981563;28;20121;-68
2023/05/23 01:30:19;;;;;;;8.27;5.05;;;;;;;15.19;92.83;101482.06;4983564;28;20058;-68
2023/05/23 01:32:47;;;;;;;8.82;6.07;;;;;;;15.19;93.25;101484.69;4985684;28;20026;-68
2023/05/23 01:35:20;;;;;;;7.60;5.13;;;;;;;15.16;93.68;101489.44;4990860;28;20042;-68
2023/05/23 01:37:46;;;;;;;7.57;5.05;;;;;;;15.18;94.04;101487.47;4994068;28;20545;-69
2023/05/23 01:40:11;;;;;;;10.48;5.82;;;;;;;15.24;94.15;101485.97;4973523;28;20086;-69
2023/05/23 01:42:37;;;;;;;7.95;5.50;;;;;;;15.17;94.51;101489.25;4988033;28;20328;-69
2023/05/23 01:45:03;;;;;;;12.75;5.63;;;;;;;15.28;93.96;101485.47;5004593;28;20121;-69
2023/05/23 01:47:30;;;;;;;12.15;5.90;;;;;;;15.21;94.27;101486.31;5015202;28;20025;-69
2023/05/23 01:49:58;;;;;;;12.43;6.13;;;;;;;15.25;94.58;101487.59;5016592;28;20172;-69
2023/05/23 01:52:24;;;;;;;10.38;6.28;;;;;;;15.15;94.55;101485.19;4989509;28;20261;-69
2023/05/23 01:54:51;;;;;;;12.00;6.82;;;;;;;15.17;94.18;101488.47;4990432;28;20494;-69
2023/05/23 01:57:18;;;;;;;8.75;6.65;;;;;;;15.17;93.59;101485.84;5000451;28;20046;-69
2023/05/23 01:59:44;;;;;;;11.38;6.30;;;;;;;15.14;93.63;101489.63;5002771;28;20497;-69
2023/05/23 02:02:10;;;;;;;8.85;6.05;;;;;;;15.16;93.45;101486.81;5021406;28;20111;-69
2023/05/23 02:04:36;;;;;;;12.77;6.43;;;;;;;15.07;94.10;101488.66;4988940;28;20668;-69
2023/05/23 02:07:01;;;;;;;12.27;7.07;;;;;;;15.08;93.77;101492.88;4984025;28;20045;-69
2023/05/23 02:09:26;;;;;;;11.50;6.60;;;;;;;15.07;93.69;101500.88;4996463;28;20096;-68
2023/05/23 02:11:52;;;;;;;10.30;5.72;;;;;;;15.11;92.86;101499.59;5010349;28;20338;-69
2023/05/23 02:14:18;;;;;;;14.02;6.90;;;;;;;15.08;93.10;101497.31;5000834;28;20997;-69
2023/05/23 02:16:44;;;;;;;11.02;6.70;;;;;;;15.07;93.35;101495.66;5004523;28;20053;-69
2023/05/23 02:19:09;;;;;;;15.45;6.75;;;;;;;14.97;93.43;101504.53;4988812;28;20052;-69
2023/05/23 02:21:35;;;;;;;14.85;7.22;;;;;;;15.01;93.16;101504.97;5001121;28;20042;-69
2023/05/23 02:24:02;;;;;;;10.90;6.45;;;;;;;14.96;93.58;101502.88;4999207;28;20421;-68
2023/05/23 02:26:27;;;;;;;12.60;6.65;;;;;;;14.98;93.24;101495.69;4968817;28;20042;-68
2023/05/23 02:28:53;;;;;;;14.40;6.78;;;;;;;15.08;92.24;101495.50;4996875;28;20069;-68
2023/05/23 02:31:19;;;;;;;12.60;6.45;;;;;;;15.03;92.85;101510.88;5005795;28;20038;-68
2023/05/23 02:33:44;;;;;;;17.52;6.32;;;;;;;14.94;93.00;101502.25;5006431;28;20038;-68
2023/05/23 02:36:10;;;;;;;11.35;5.90;;;;;;;14.99;92.71;101496.50;5015179;28;20121;-68
2023/05/23 02:38:35;;;;;;;12.32;5.88;;;;;;;14.95;92.87;101508.28;5007048;28;20049;-69
2023/05/23 02:41:01;;;;;;;11.85;5.97;;;;;;;14.96;93.43;101512.53;5028244;28;20026;-68
2023/05/23 02:43:26;;;;;;;11.27;6.07;;;;;;;14.95;93.26;101519.53;5005531;28;20396;-68
2023/05/23 02:45:52;;;;;;;12.35;6.95;;;;;;;14.98;93.35;101518.41;5024713;28;20484;-68
2023/05/23 02:48:17;;;;;;;9.60;5.53;;;;;;;14.90;93.28;101524.44;5007592;28;20468;-69
2023/05/23 02:50:43;;;;;;;12.55;6.45;;;;;;;15.02;93.88;101519.69;4987955;28;20562;-68
2023/05/23 02:53:09;;;;;;;17.27;6.45;;;;;;;14.89;93.93;101527.22;4992836;28;20050;-68
2023/05/23 02:55:35;;;;;;;14.27;6.07;;;;;;;14.95;93.77;101531.78;4993571;28;20049;-68
2023/05/23 02:58:04;;;;;;;12.55;6.38;;;;;;;14.71;95.04;101532.63;4991778;28;20048;-68
2023/05/23 03:00:31;;;;;;;11.95;6.55;;;;;;;14.81;95.19;101530.66;4988778;28;20076;-68
2023/05/23 03:02:57;;;;;;;10.77;6.55;;;;;;;14.74;95.05;101532.31;5021616;28;20438;-69
2023/05/23 03:05:22;;;;;;;10.20;5.65;;;;;;;14.78;95.25;101537.00;4993151;28;20037;-68
2023/05/23 03:07:48;;;;;;;9.00;5.88;;;;;;;14.73;95.93;101539.31;5000796;28;20034;-69
2023/05/23 03:10:14;;;;;;;14.40;6.13;;;;;;;14.74;96.79;101540.13;4994922;28;20031;-69
2023/05/23 03:12:40;;;;;;;10.65;5.53;;;;;;;14.74;97.22;101545.34;4992907;28;20096;-68
2023/05/23 03:15:06;;;;;;;11.43;6.53;;;;;;;14.71;97.81;101533.47;5004028;28;20070;-68
2023/05/23 03:17:34;;;;;;;14.00;7.30;;;;;;;14.78;98.42;101533.59;4980838;28;20696;-68
2023/05/23 03:19:59;;;;;;;15.23;6.60;;;;;;;14.74;98.46;101534.91;4989612;28;20034;-68
2023/05/23 03:22:25;;;;;;;15.25;6.95;;;;;;;14.76;98.66;101530.34;5016812;28;20022;-68
2023/05/23 03:24:50;;;;;;;11.13;6.38;;;;;;;14.73;98.48;101526.28;5002655;28;20050;-68
2023/05/23 03:27:16;;;;;;;12.70;6.18;;;;;;;14.68;98.59;101536.38;4988221;28;20045;-68
2023/05/23 03:29:41;;;;;;;16.08;6.97;;;;;;;14.72;97.97;101535.06;4993801;28;20035;-68
2023/05/23 03:32:07;;;;;;;13.88;6.45;;;;;;;14.63;98.22;101530.03;4990015;28;20026;-68
2023/05/23 03:34:33;;;;;;;10.18;6.10;;;;;;;14.63;98.21;101532.66;4994874;28;20042;-68
2023/05/23 03:36:58;;;;;;;16.58;6.82;;;;;;;14.47;98.45;101536.88;5006459;28;20120;-68
2023/05/23 03:39:25;;;;;;;13.23;5.93;;;;;;;14.41;98.56;101538.34;5001338;28;20038;-68
2023/05/23 03:41:50;;;;;;;11.05;6.10;;;;;;;14.55;97.57;101534.25;5003196;28;20038;-68
2023/05/23 03:44:16;;;;;;;9.40;5.70;;;;;;;14.48;97.69;101535.06;4980931;28;20050;-69
2023/05/23 03:46:41;;;;;;;15.45;6.45;;;;;;;14.47;97.20;101541.28;4988071;28;20454;-68
2023/05/23 03:49:07;;;;;;;10.77;5.82;;;;;;;14.47;96.73;101542.09;4998321;28;20488;-69
2023/05/23 03:51:33;;;;;;;11.98;5.78;;;;;;;14.46;96.86;101550.88;4990007;28;20033;-68
2023/05/23 03:53:58;;;;;;;14.25;7.45;;;;;;;14.43;97.00;101551.22;5013306;28;20309;-69
2023/05/23 03:56:25;;;;;;;13.52;5.75;;;;;;;14.56;96.20;101554.16;4996452;28;20030;-69
2023/05/23 03:58:51;;;;;;;11.23;5.88;;;;;;;14.47;96.46;101559.53;4987905;28;20124;-69
2023/05/23 04:01:17;;;;;;;12.98;6.15;;;;;;;14.57;95.92;101560.22;4989533;28;20049;-68
2023/05/23 04:03:42;;;;;;;12.07;5.20;;;;;;;14.45;96.17;101564.09;4989544;28;20085;-68
2023/05/23 04:06:08;;;;;;;10.55;5.40;;;;;;;14.54;96.41;101565.72;5003523;28;20401;-68
2023/05/23 04:08:36;;;;;;;9.63;5.57;;;;;;;14.39;96.85;101568.16;4974279;28;20076;-68
2023/05/23 04:11:02;;;;;;;12.95;5.95;;;;;;;14.41;96.86;101568.84;5007888;28;20045;-68
2023/05/23 04:13:32;;;;;;;11.70;5.25;;;;;;;14.37;96.74;101563.13;5008161;28;20038;-68
2023/05/23 04:16:00;;;;;;;10.90;5.18;;;;;;;14.44;97.02;101568.50;4970867;28;20608;-68
2023/05/23 04:18:27;;;;;;;11.43;5.80;;;;;;;14.37;97.05;101570.97;4987979;28;20121;-68
2023/05/23 04:20:53;;;;;;;14.10;6.15;;;;;;;14.35;97.06;101567.69;4976460;28;20477;-69
2023/05/23 04:23:20;;;;;;;18.52;7.05;;;;;;;14.33;97.60;101572.22;4978105;28;20521;-69
2023/05/23 04:25:50;;;;;;;12.45;6.07;;;;;;;14.36;97.56;101571.91;5002118;28;20400;-69
2023/05/23 04:28:26;;;;;;;10.77;6.10;;;;;;;14.39;97.39;101574.22;4999096;28;20042;-68
2023/05/23 04:30:52;;;;;;;10.88;5.97;;;;;;;14.39;97.00;101576.00;4988237;28;20034;-69
2023/05/23 04:33:21;;;;;;;12.85;6.45;;;;;;;14.34;96.85;101583.50;4987384;28;20038;-68
2023/05/23 04:35:48;;;;;;;10.48;5.90;;;;;;;14.37;97.18;101580.56;5018795;28;20041;-68
2023/05/23 04:38:13;;;;;;;17.17;7.43;;;;;;;14.41;97.17;101576.66;5009092;28;20046;-68
2023/05/23 04:40:40;;;;;;;11.90;6.25;;;;;;;14.47;97.05;101585.63;4989568;28;20023;-68
2023/05/23 04:43:41;;;;;;;14.27;7.05;;;;;;;14.46;97.05;101582.19;4980488;28;20684;-69
2023/05/23 04:46:25;;;;;;;15.68;7.55;;;;;;;14.54;96.83;101586.59;4985303;28;20099;-68
2023/05/23 04:49:03;;;;;;;13.10;6.25;;;;;;;14.53;96.65;101591.00;4995999;28;20080;-68
2023/05/23 04:51:29;;;;;;;14.45;7.45;;;;;;;14.56;96.76;101582.88;5002226;28;20034;-69
2023/05/23 04:54:01;;;;;;;16.33;7.40;;;;;;;14.54;96.63;101589.22;4992319;28;20051;-68
2023/05/23 04:56:27;;;;;;;12.18;6.88;;;;;;;14.43;97.21;101592.97;4989261;28;20034;-68
2023/05/23 04:58:54;;;;;;;17.20;7.70;;;;;;;14.45;97.12;101596.22;4981542;28;20046;-68
2023/05/23 05:01:23;;;;;;;17.17;8.18;;;;;;;14.48;97.12;101595.88;4985140;28;20393;-68
2023/05/23 05:03:49;;;;;;;15.85;7.55;;;;;;;14.46;97.64;101594.44;4988122;28;20471;-68
2023/05/23 05:06:16;;;;;;;14.13;7.70;;;;;;;14.46;97.83;101603.06;4987379;28;20045;-68
2023/05/23 05:08:42;;;;;;;16.55;7.25;;;;;;;14.57;97.35;101601.97;4985322;28;20038;-68
2023/05/23 05:11:09;;;;;;;14.88;7.80;;;;;;;14.44;97.56;101599.00;5001558;28;20027;-69
2023/05/23 05:13:34;;;;;;;14.27;7.22;;;;;;;14.38;97.60;101603.06;4993406;28;20053;-68
2023/05/23 05:16:00;;;;;;;13.57;6.88;;;;;;;14.33;98.43;101605.34;4998726;28;20036;-67
2023/05/23 05:18:26;;;;;;;14.85;7.53;;;;;;;14.46;97.66;101604.88;4983281;28;20475;-68
2023/05/23 05:20:53;;;;;;;15.23;7.72;;;;;;;14.59;97.79;101611.25;4986555;28;20022;-68
2023/05/23 05:23:18;;;;;;;14.75;7.75;;;;;;;14.69;97.23;101610.28;4988535;28;20058;-68
2023/05/23 05:25:44;;;;;;;15.13;7.68;;;;;;;14.61;96.53;101608.50;5000532;28;20034;-68
2023/05/23 05:28:11;;;;;;;13.02;7.32;;;;;;;14.51;97.44;101607.81;4977903;28;20050;-68
2023/05/23 05:30:41;;;;;;;14.98;7.10;;;;;;;14.59;96.94;101619.09;4998255;28;20539;-68
2023/05/23 05:33:09;;;;;;;18.33;7.85;;;;;;;14.56;97.08;101618.56;4967064;28;20042;-68
2023/05/23 05:35:37;;;;;;;15.10;7.65;;;;;;;14.48;97.38;101615.97;4973979;28;20444;-68
2023/05/23 05:38:03;;;;;;;15.98;7.47;;;;;;;14.56;96.84;101618.56;5000092;28;20030;-68
2023/05/23 05:40:30;;;;;;;13.95;6.60;;;;;;;14.55;96.93;101624.78;4973058;28;20032;-68
2023/05/23 05:42:56;;;;;;;15.48;7.00;;;;;;;14.52;97.22;101631.16;4985734;28;20027;-68
2023/05/23 05:45:22;;;;;;;13.68;6.75;;;;;;;14.54;97.46;101629.19;5003749;28;20510;-68
2023/05/23 05:47:48;;;;;;;16.75;6.72;;;;;;;14.55;97.43;101630.00;5005382;28;20053;-68
2023/05/23 05:50:13;;;;;;;12.68;6.50;;;;;;;14.50;97.48;101637.47;5021069;28;20693;-68
2023/05/23 05:52:41;;;;;;;14.18;7.05;;;;;;;14.39;98.43;101639.44;4999920;28;20037;-68
2023/05/23 05:55:11;;;;;;;15.88;6.90;;;;;;;14.45;98.38;101643.19;5001732;28;20037;-68
2023/05/23 05:57:38;;;;;;;16.10;6.75;;;;;;;14.42;98.28;101638.28;4980705;28;20488;-68
2023/05/23 06:00:18;;;;;;;10.32;6.20;;;;;;;14.41;98.75;101644.50;5002356;28;20066;-68
2023/05/23 06:02:50;;;;;;;13.30;5.68;;;;;;;14.41;99.00;101641.91;5019087;28;20026;-69
2023/05/23 06:05:26;;;;;;;14.45;6.00;;;;;;;14.35;98.63;101642.50;4994559;28;20040;-68
2023/05/23 06:07:52;;;;;;;16.90;6.82;;;;;;;14.38;98.56;101647.41;5004171;28;20288;-68
2023/05/23 06:10:18;;;;;;;12.02;5.47;;;;;;;14.49;98.53;101647.13;5004754;28;20038;-68
2023/05/23 06:12:44;;;;;;;10.73;5.93;;;;;;;14.42;98.40;101646.13;5004163;28;20027;-68
2023/05/23 06:15:10;;;;;;;11.52;6.07;;;;;;;14.45;98.41;101651.03;4984212;28;20124;-68
2023/05/23 06:17:37;;;;;;;12.30;6.43;;;;;;;14.53;97.81;101652.84;5002739;28;20109;-68
2023/05/23 06:20:03;;;;;;;12.43;6.20;;;;;;;14.60;96.94;101644.22;4991473;28;20100;-68
2023/05/23 06:22:30;;;;;;;10.20;5.85;;;;;;;14.54;96.52;101644.00;4973211;28;20134;-68
2023/05/23 06:24:56;;;;;;;11.65;5.68;;;;;;;14.60;95.76;101649.44;4990291;28;20042;-68
2023/05/23 06:27:22;;;;;;;10.15;5.45;;;;;;;14.58;96.03;101653.19;4971822;28;20392;-68
2023/05/23 06:29:48;;;;;;;11.93;6.07;;;;;;;14.51;96.75;101658.22;5004055;28;20282;-68
2023/05/23 06:32:13;;;;;;;12.95;6.35;;;;;;;14.46;96.50;101668.31;4989398;28;20022;-68
2023/05/23 06:34:39;;;;;;;12.57;5.93;;;;;;;14.55;95.88;101663.91;4994674;28;20050;-68
2023/05/23 06:37:05;;;;;;;13.60;5.85;;;;;;;14.52;95.63;101656.41;4988209;28;20439;-68
2023/05/23 06:39:31;;;;;;;11.45;5.65;;;;;;;14.44;96.06;101670.25;4989275;28;20042;-68
2023/05/23 06:41:56;;;;;;;14.30;5.82;;;;;;;14.42;96.29;101669.59;4990395;28;20042;-68
2023/05/23 06:44:22;;;;;;;22.90;5.70;;;;;;;14.36;96.30;101672.84;4981136;28;20038;-70
2023/05/23 06:46:57;;;;;;;11.35;6.20;;;;;;;14.43;96.32;101673.03;4986018;28;20022;-70
2023/05/23 06:49:24;;;;;;;12.27;5.80;;;;;;;14.45;95.46;101681.50;4987354;28;20046;-70
2023/05/23 06:51:50;;;;;;;14.00;6.07;;;;;;;14.38;95.90;101676.94;4988236;28;20030;-70
2023/05/23 06:54:16;;;;;;;11.30;5.95;;;;;;;14.45;96.44;101687.56;4986526;28;20047;-70
2023/05/23 06:56:42;;;;;;;17.23;5.55;;;;;;;14.55;96.13;101679.59;5005756;28;20070;-68
2023/05/23 06:59:08;;;;;;;11.73;5.82;;;;;;;14.51;96.58;101681.69;4986647;28;20047;-68
2023/05/23 07:01:33;;;;;;;12.13;6.80;;;;;;;14.49;96.70;101678.44;4989284;28;20022;-68
2023/05/23 07:03:59;;;;;;;13.07;6.88;;;;;;;14.56;96.77;101689.03;4980051;28;20046;-68
2023/05/23 07:06:26;;;;;;;13.85;7.13;;;;;;;14.55;96.51;101690.03;5008467;28;20124;-68
2023/05/23 07:08:52;;;;;;;17.50;7.15;;;;;;;14.47;97.17;101683.00;5008169;28;20039;-68
2023/05/23 07:11:21;;;;;;;12.40;6.57;;;;;;;14.55;97.61;101685.59;5008480;28;20084;-68
2023/05/23 07:13:56;;;;;;;12.50;7.32;;;;;;;14.52;97.40;101692.94;5003490;28;20034;-68
2023/05/23 07:16:34;;;;;;;15.60;7.82;;;;;;;14.66;97.14;101696.75;5008976;28;20029;-68
2023/05/23 07:19:04;;;;;;;18.60;7.88;;;;;;;14.66;96.93;101704.59;4997848;28;20030;-68
2023/05/23 07:21:30;;;;;;;20.35;9.23;;;;;;;14.55;96.57;101711.69;4974368;28;20026;-68
2023/05/23 07:23:56;;;;;;;19.80;8.52;;;;;;;14.44;96.81;101706.78;4986620;28;20057;-68
2023/05/23 07:26:22;;;;;;;22.83;8.38;;;;;;;14.45;96.23;101711.03;5007438;28;20030;-68
2023/05/23 07:28:51;;;;;;;23.75;8.25;;;;;;;14.45;97.36;101708.44;4988472;28;20691;-68
2023/05/23 07:31:17;;;;;;;22.63;8.90;;;;;;;14.33;97.89;101705.28;5008865;28;20022;-68
2023/05/23 07:33:43;;;;;;;19.23;7.88;;;;;;;14.40;97.82;101710.69;5006984;28;20041;-67
2023/05/23 07:36:12;;;;;;;23.35;8.43;;;;;;;14.28;97.65;101722.38;5003214;28;20030;-68
2023/05/23 07:38:37;;;;;;;23.08;8.68;;;;;;;14.13;97.93;101714.38;5003330;28;20459;-68
2023/05/23 07:41:03;;;;;;;19.67;8.77;;;;;;;14.14;98.21;101724.63;5022649;28;20033;-68
2023/05/23 07:43:28;;;;;;;22.50;8.30;;;;;;;14.13;98.35;101714.38;5003432;28;20065;-68
2023/05/23 07:45:54;;;;;;;23.15;9.00;;;;;;;14.28;97.71;101718.00;5004876;28;20100;-68
2023/05/23 07:48:20;;;;;;;30.05;8.70;;;;;;;14.36;96.22;101722.44;4997233;28;20472;-68
2023/05/23 07:50:46;;;;;;;19.75;8.52;;;;;;;14.28;97.37;101730.22;4986000;28;20488;-68
2023/05/23 07:53:11;;;;;;;23.15;8.88;;;;;;;14.30;97.47;101726.50;4993453;28;20048;-68
2023/05/23 07:55:38;;;;;;;23.65;8.18;;;;;;;14.38;97.39;101725.69;5004953;28;20033;-68
2023/05/23 07:58:04;;;;;;;21.27;8.77;;;;;;;14.28;97.88;101740.66;5001357;28;20033;-68
2023/05/23 08:00:31;;;;;;;24.88;7.60;;;;;;;14.40;97.33;101731.56;4990735;28;20026;-68
2023/05/23 08:03:04;;;;;;;20.70;7.50;;;;;;;14.28;97.25;101738.03;4986199;28;20026;-68
2023/05/23 08:05:36;;;;;;;17.48;7.85;;;;;;;14.25;97.87;101739.19;4986184;28;20087;-68
2023/05/23 08:08:01;;;;;;;21.60;7.35;;;;;;;14.33;96.89;101741.81;4989052;28;20416;-68
2023/05/23 08:10:28;;;;;;;14.70;6.65;;;;;;;14.35;96.40;101739.88;4988586;28;20030;-68
2023/05/23 08:12:59;;;;;;;16.73;6.53;;;;;;;14.21;97.16;101750.91;4985419;28;20088;-68
2023/05/23 08:15:30;;;;;;;18.27;6.32;;;;;;;14.28;96.92;101748.47;5023338;28;20061;-68
2023/05/23 08:18:05;;;;;;;16.85;7.22;;;;;;;14.31;96.71;101754.19;5009417;28;20029;-68
2023/05/23 08:20:31;;;;;;;20.25;7.03;;;;;;;14.31;96.00;101753.38;4988642;28;20190;-68
2023/05/23 08:22:58;;;;;;;18.38;7.25;;;;;;;14.12;96.73;101752.66;5015711;28;20466;-68
2023/05/23 08:25:29;;;;;;;16.52;7.18;;;;;;;14.07;97.65;101752.31;5001880;28;20030;-68
2023/05/23 08:27:55;;;;;;;16.15;6.30;;;;;;;14.15;98.36;101757.56;4990822;28;20152;-68
2023/05/23 08:30:38;;;;;;;18.20;6.25;;;;;;;14.07;97.62;101764.50;4983733;28;20030;-68
2023/05/23 08:33:05;;;;;;;24.88;7.22;;;;;;;14.14;97.96;101768.97;4986981;28;20030;-68
2023/05/23 08:35:34;;;;;;;20.50;6.07;;;;;;;14.04;97.89;101773.47;4975051;28;20493;-68
2023/05/23 08:38:06;;;;;;;22.50;6.78;;;;;;;14.10;96.97;101777.25;4983340;28;20034;-68
2023/05/23 08:40:34;;;;;;;13.27;5.82;;;;;;;14.03;96.39;101777.03;5002008;28;20030;-68
2023/05/23 08:43:09;;;;;;;15.18;6.63;;;;;;;13.98;95.37;101779.31;4973934;28;20045;-70
2023/05/23 08:45:36;;;;;;;19.63;6.38;;;;;;;13.98;95.31;101781.94;4988835;28;20698;-68
2023/05/23 08:48:05;;;;;;;19.38;7.28;;;;;;;13.94;94.92;101778.00;4983294;28;20034;-71
2023/05/23 08:50:35;;;;;;;11.65;5.65;;;;;;;13.92;94.53;101787.75;5002139;28;20033;-68
2023/05/23 08:53:03;;;;;;;11.02;5.20;;;;;;;13.83;94.17;101790.31;4986163;28;20452;-68
2023/05/23 08:55:29;;;;;;;14.35;5.90;;;;;;;13.96;93.84;101792.50;4990185;28;20227;-69
2023/05/23 08:58:00;;;;;;;13.10;5.70;;;;;;;13.93;93.56;101797.22;4985590;28;20034;-68
2023/05/23 09:00:48;;;;;;;18.42;6.85;;;;;;;13.77;94.17;101803.16;5005720;28;20034;-69
2023/05/23 09:03:15;;;;;;;18.00;5.32;;;;;;;13.80;94.27;101803.63;4989285;28;20050;-68
2023/05/23 09:05:54;;;;;;;16.23;5.57;;;;;;;13.82;93.70;101814.75;4985119;28;20034;-68
2023/05/23 09:08:20;;;;;;;15.32;5.80;;;;;;;13.78;93.79;101816.00;5001894;28;20044;-68
2023/05/23 09:10:50;;;;;;;16.10;6.03;;;;;;;13.60;94.23;101816.06;4972546;28;20125;-68
2023/05/23 09:13:16;;;;;;;12.35;5.88;;;;;;;13.55;95.61;101823.50;4987203;28;20125;-68
2023/05/23 09:15:56;;;;;;;17.10;7.28;;;;;;;13.66;95.42;101822.44;4982300;28;20097;-68
2023/05/23 09:18:24;;;;;;;16.73;6.18;;;;;;;13.60;96.09;101829.09;4987345;28;20550;-68
2023/05/23 09:20:50;;;;;;;20.88;6.35;;;;;;;13.53;95.22;101830.66;4970946;28;20022;-68
2023/05/23 09:23:16;;;;;;;18.63;6.05;;;;;;;13.46;93.74;101844.44;4989020;28;20048;-68
2023/05/23 09:25:46;;;;;;;20.30;5.95;;;;;;;13.41;93.33;101831.84;5002363;28;20038;-68
2023/05/23 09:28:12;;;;;;;18.30;5.93;;;;;;;13.47;91.43;101833.84;5008149;28;20145;-68
2023/05/23 09:30:38;;;;;;;14.38;5.88;;;;;;;13.31;91.76;101839.72;4983089;28;20508;-68
2023/05/23 09:33:04;;;;;;;15.23;5.20;;;;;;;13.30;91.10;101845.91;4970951;28;20030;-68
2023/05/23 09:35:29;;;;;;;20.33;6.05;;;;;;;13.21;89.46;101849.38;5021847;28;20421;-69
2023/05/23 09:37:57;;;;;;;11.27;4.40;;;;;;;13.16;87.51;101847.19;5008342;28;20030;-68
2023/05/23 09:40:29;;;;;;;17.48;5.22;;;;;;;13.30;86.86;101840.72;4999862;28;20405;-68
2023/05/23 09:43:03;;;;;;;12.80;4.28;;;;;;;13.41;85.38;101845.69;5023368;28;20064;-68
2023/05/23 09:45:32;;;;;;;9.52;4.53;;;;;;;13.69;85.14;101848.19;5008303;28;20388;-69
2023/05/23 09:48:00;;;;;;;11.18;4.38;;;;;;;13.78;83.06;101846.47;5007532;28;20080;-68
2023/05/23 09:50:32;;;;;;;18.80;4.85;;;;;;;13.91;84.47;101846.09;5005473;28;20236;-69
2023/05/23 09:52:58;;;;;;;9.68;4.30;;;;;;;13.98;81.72;101845.31;5018919;28;20117;-69
2023/05/23 09:55:23;;;;;;;11.13;4.70;;;;;;;14.12;81.26;101843.94;5010372;28;20108;-69
2023/05/23 09:57:55;;;;;;;13.40;4.45;;;;;;;14.31;80.81;101836.88;5006508;28;20022;-69
2023/05/23 10:00:22;;;;;;;12.65;4.45;;;;;;;14.41;79.35;101838.41;5008787;28;20037;-69
2023/05/23 10:03:09;;;;;;;11.07;4.85;;;;;;;14.30;79.66;101849.09;5013001;28;20045;-69
2023/05/23 10:05:46;;;;;;;17.33;4.82;;;;;;;14.28;79.57;101848.44;5022982;28;20038;-69
2023/05/23 10:08:28;;;;;;;13.35;5.50;;;;;;;14.31;78.63;101845.50;5007675;28;20080;-69
2023/05/23 10:10:56;;;;;;;14.65;4.78;;;;;;;14.41;78.86;101848.03;5011330;28;20029;-68
2023/05/23 10:13:26;;;;;;;12.27;4.80;;;;;;;14.41;79.27;101845.41;5008266;28;20060;-68
2023/05/23 10:16:01;;;;;;;10.73;4.60;;;;;;;14.70;78.53;101849.47;5007880;28;20029;-69
2023/05/23 10:18:33;;;;;;;10.13;4.55;;;;;;;15.34;75.94;101840.13;5035540;23;20030;-71
2023/05/23 10:21:14;;;;;;;9.13;4.57;;;;;;;15.77;72.54;101834.78;5005420;28;20092;-70
2023/05/23 10:23:41;;;;;;;16.60;5.68;;;;;;;16.03;71.07;101831.97;5005062;28;20044;-70
2023/05/23 10:26:06;;;;;;;13.70;5.05;;;;;;;16.07;72.56;101842.91;5012672;28;20044;-70
2023/05/23 10:28:32;;;;;;;9.85;4.43;;;;;;;15.99;69.98;101835.88;5010703;28;20034;-70
2023/05/23 10:30:58;;;;;;;15.18;5.35;;;;;;;16.25;69.10;101840.09;4993130;28;20056;-71
2023/05/23 10:33:29;;;;;;;12.93;5.05;;;;;;;16.37;68.45;101843.16;4994053;28;20076;-71
2023/05/23 10:36:13;;;;;;;11.02;4.60;;;;;;;16.19;68.88;101830.28;4967784;28;20046;-71
2023/05/23 10:38:55;;;;;;;16.25;6.10;;;;;;;16.50;69.34;101832.94;4993189;28;20041;-70
2023/05/23 10:41:35;;;;;;;10.90;4.80;;;;;;;16.26;68.50;101836.50;4966478;28;20153;-71
2023/05/23 10:44:15;;;;;;;9.48;5.20;;;;;;;16.30;67.57;101843.81;4991575;28;20050;-70
2023/05/23 10:46:56;;;;;;;10.70;4.70;;;;;;;16.19;67.85;101844.19;4992188;28;20034;-71
2023/05/23 10:49:42;;;;;;;15.40;5.35;;;;;;;16.04;66.88;101845.84;4973604;28;20137;-70
2023/05/23 10:52:10;;;;;;;12.00;4.40;;;;;;;16.01;68.00;101844.41;4984517;28;20129;-71
2023/05/23 10:54:50;;;;;;;13.23;5.82;;;;;;;16.03;68.42;101845.06;4977185;28;20129;-70
2023/05/23 10:57:19;;;;;;;13.15;5.70;;;;;;;15.93;69.30;101847.81;4957270;28;20093;-70
2023/05/23 10:59:49;;;;;;;16.55;5.20;;;;;;;16.16;69.10;101854.97;4975480;28;20546;-71
2023/05/23 11:02:18;;;;;;;13.95;5.75;;;;;;;16.17;69.56;101851.38;4980278;28;20377;-70
2023/05/23 11:04:44;;;;;;;14.15;4.95;;;;;;;16.24;67.16;101843.69;4976703;28;20040;-70
2023/05/23 11:07:29;;;;;;;13.18;5.45;;;;;;;16.14;67.55;101859.56;4967175;28;20027;-70
2023/05/23 11:10:04;;;;;;;13.63;4.50;;;;;;;16.17;67.76;101861.84;4994753;28;20378;-71
2023/05/23 11:13:04;;;;;;;12.35;5.18;;;;;;;15.87;68.75;101860.75;4970625;28;20117;-71
2023/05/23 11:15:41;;;;;;;15.15;4.75;;;;;;;16.06;67.16;101856.97;4969138;28;20061;-71
2023/05/23 11:18:07;;;;;;;7.70;3.55;;;;;;;16.24;65.52;101857.59;4972523;28;20034;-71
2023/05/23 11:20:35;;;;;;;8.77;3.40;;;;;;;16.72;65.11;101849.72;4981181;28;20057;-71
2023/05/23 11:23:06;;;;;;;6.80;2.67;;;;;;;16.93;64.33;101852.59;4954971;28;20096;-71